sensor_id;sensor_type;location;lat;lon;timestamp;temperature;humidity
32698;DHT22;19087;51.062;3.754;2023-01-01T10:38:53;13.10;99.90
32698;DHT22;19087;51.062;3.754;2023-01-01T10:41:21;13.10;99.90
32698;DHT22;19087;51.062;3.754;2023-01-01T10:43:48;13.20;99.90
32698;DHT22;19087;51.062;3.754;2023-01-01T10:46:18;13.40;99.90
32698;DHT22;19087;51.062;3.754;2023-01-01T10:51:33;13.90;99.90
32698;DHT22;19087;51.062;3.754;2023-01-01T10:56:50;13.90;99.90
32698;DHT22;19087;51.062;3.754;2023-01-01T10:59:37;14.00;99.90
32698;DHT22;19087;51.062;3.754;2023-01-01T11:02:22;14.10;99.90
32698;DHT22;19087;51.062;3.754;2023-01-01T11:04:50;14.10;99.90
32698;DHT22;19087;51.062;3.754;2023-01-01T11:07:29;14.10;99.90
32698;DHT22;19087;51.062;3.754;2023-01-01T11:10:04;14.20;99.90
32698;DHT22;19087;51.062;3.754;2023-01-01T11:12:36;14.20;99.90
32698;DHT22;19087;51.062;3.754;2023-01-01T11:15:04;14.00;99.90
32698;DHT22;19087;51.062;3.754;2023-01-01T11:17:34;13.90;99.90
32698;DHT22;19087;51.062;3.754;2023-01-01T11:20:03;14.10;99.90
32698;DHT22;19087;51.062;3.754;2023-01-01T11:22:41;14.30;99.90
32698;DHT22;19087;51.062;3.754;2023-01-01T11:25:23;14.50;99.90
32698;DHT22;19087;51.062;3.754;2023-01-01T11:27:50;14.60;99.90
32698;DHT22;19087;51.062;3.754;2023-01-01T11:32:59;14.80;99.90
32698;DHT22;19087;51.062;3.754;2023-01-01T11:35:30;15.00;99.90
32698;DHT22;19087;51.062;3.754;2023-01-01T11:37:58;15.00;99.90
32698;DHT22;19087;51.062;3.754;2023-01-01T11:40:28;15.20;99.90
32698;DHT22;19087;51.062;3.754;2023-01-01T11:43:00;15.30;99.90
32698;DHT22;19087;51.062;3.754;2023-01-01T11:45:46;15.20;99.90
32698;DHT22;19087;51.062;3.754;2023-01-01T11:48:16;15.40;99.90
32698;DHT22;19087;51.062;3.754;2023-01-01T11:50:53;15.10;99.90
32698;DHT22;19087;51.062;3.754;2023-01-01T12:00:51;14.90;99.90
32698;DHT22;19087;51.062;3.754;2023-01-01T12:03:24;15.00;99.90
32698;DHT22;19087;51.062;3.754;2023-01-01T12:11:40;15.00;99.90
32698;DHT22;19087;51.062;3.754;2023-01-01T12:14:35;14.90;99.90
32698;DHT22;19087;51.062;3.754;2023-01-01T12:17:15;15.00;99.90
32698;DHT22;19087;51.062;3.754;2023-01-01T12:20:11;15.00;99.90
32698;DHT22;19087;51.062;3.754;2023-01-01T12:22:39;14.70;99.90
32698;DHT22;19087;51.062;3.754;2023-01-01T12:25:10;14.70;99.90
32698;DHT22;19087;51.062;3.754;2023-01-01T12:33:26;15.10;99.90
32698;DHT22;19087;51.062;3.754;2023-01-01T12:36:02;15.00;99.90
32698;DHT22;19087;51.062;3.754;2023-01-01T12:41:40;14.90;99.90
32698;DHT22;19087;51.062;3.754;2023-01-01T13:00:21;14.30;99.90
32698;DHT22;19087;51.062;3.754;2023-01-01T13:03:13;14.50;99.90
32698;DHT22;19087;51.062;3.754;2023-01-01T13:05:42;14.50;99.90
32698;DHT22;19087;51.062;3.754;2023-01-01T13:08:10;14.60;99.90
32698;DHT22;19087;51.062;3.754;2023-01-01T13:10:38;14.60;99.90
32698;DHT22;19087;51.062;3.754;2023-01-01T13:13:05;14.60;99.90
32698;DHT22;19087;51.062;3.754;2023-01-01T13:21:17;14.70;99.90
32698;DHT22;19087;51.062;3.754;2023-01-01T13:23:46;14.90;99.90
32698;DHT22;19087;51.062;3.754;2023-01-01T13:31:17;14.80;99.90
32698;DHT22;19087;51.062;3.754;2023-01-01T13:33:42;14.90;99.90
32698;DHT22;19087;51.062;3.754;2023-01-01T13:38:58;14.90;99.90
32698;DHT22;19087;51.062;3.754;2023-01-01T13:57:21;14.50;99.90
32698;DHT22;19087;51.062;3.754;2023-01-01T14:02:35;14.20;99.90
32698;DHT22;19087;51.062;3.754;2023-01-01T14:07:52;14.10;99.90
32698;DHT22;19087;51.062;3.754;2023-01-01T14:12:56;14.20;99.90
32698;DHT22;19087;51.062;3.754;2023-01-01T14:15:37;14.30;99.90
32698;DHT22;19087;51.062;3.754;2023-01-01T14:18:11;14.40;99.90
32698;DHT22;19087;51.062;3.754;2023-01-01T14:20:43;14.40;99.90
32698;DHT22;19087;51.062;3.754;2023-01-01T14:23:15;14.40;99.90
32698;DHT22;19087;51.062;3.754;2023-01-01T14:25:43;14.30;99.90
32698;DHT22;19087;51.062;3.754;2023-01-01T14:28:23;14.20;99.90
32698;DHT22;19087;51.062;3.754;2023-01-01T14:33:32;14.20;99.90
32698;DHT22;19087;51.062;3.754;2023-01-01T14:39:00;14.00;99.90
32698;DHT22;19087;51.062;3.754;2023-01-01T14:41:46;14.00;99.90
32698;DHT22;19087;51.062;3.754;2023-01-01T14:46:50;14.00;99.90
32698;DHT22;19087;51.062;3.754;2023-01-01T14:49:25;13.90;99.90
32698;DHT22;19087;51.062;3.754;2023-01-01T14:52:07;13.90;99.90
32698;DHT22;19087;51.062;3.754;2023-01-01T14:54:42;13.80;99.90
32698;DHT22;19087;51.062;3.754;2023-01-01T14:57:19;13.80;99.90
32698;DHT22;19087;51.062;3.754;2023-01-01T14:59:50;13.80;99.90
32698;DHT22;19087;51.062;3.754;2023-01-01T15:02:27;13.70;99.90
32698;DHT22;19087;51.062;3.754;2023-01-01T15:07:59;13.70;99.90
32698;DHT22;19087;51.062;3.754;2023-01-01T15:10:33;13.70;99.90
32698;DHT22;19087;51.062;3.754;2023-01-01T15:12:59;13.70;99.90
32698;DHT22;19087;51.062;3.754;2023-01-01T15:15:43;13.60;99.90
32698;DHT22;19087;51.062;3.754;2023-01-01T15:24:08;13.50;99.90
32698;DHT22;19087;51.062;3.754;2023-01-01T15:26:48;13.50;99.90
32698;DHT22;19087;51.062;3.754;2023-01-01T15:29:38;13.40;99.90
32698;DHT22;19087;51.062;3.754;2023-01-01T15:32:10;13.30;99.90
32698;DHT22;19087;51.062;3.754;2023-01-01T15:34:41;13.40;99.90
32698;DHT22;19087;51.062;3.754;2023-01-01T15:37:35;13.30;99.90
32698;DHT22;19087;51.062;3.754;2023-01-01T15:42:43;13.30;99.90
32698;DHT22;19087;51.062;3.754;2023-01-01T15:45:28;13.20;99.90
32698;DHT22;19087;51.062;3.754;2023-01-01T15:50:38;13.10;99.90
32698;DHT22;19087;51.062;3.754;2023-01-01T15:53:19;13.00;99.90
32698;DHT22;19087;51.062;3.754;2023-01-01T15:55:58;13.00;99.90
32698;DHT22;19087;51.062;3.754;2023-01-01T15:59:02;13.00;99.90
32698;DHT22;19087;51.062;3.754;2023-01-01T16:01:30;13.00;99.90
32698;DHT22;19087;51.062;3.754;2023-01-01T16:04:24;13.00;99.90
32698;DHT22;19087;51.062;3.754;2023-01-01T16:06:52;12.90;99.90
32698;DHT22;19087;51.062;3.754;2023-01-01T16:09:20;12.80;99.90
32698;DHT22;19087;51.062;3.754;2023-01-01T16:11:51;12.80;99.90
32698;DHT22;19087;51.062;3.754;2023-01-01T16:14:17;12.70;99.90
32698;DHT22;19087;51.062;3.754;2023-01-01T16:16:52;12.60;99.90
32698;DHT22;19087;51.062;3.754;2023-01-01T16:19:20;12.60;99.90
32698;DHT22;19087;51.062;3.754;2023-01-01T16:21:46;12.60;99.90
32698;DHT22;19087;51.062;3.754;2023-01-01T16:24:13;12.60;99.90
32698;DHT22;19087;51.062;3.754;2023-01-01T16:26:40;12.60;99.90
32698;DHT22;19087;51.062;3.754;2023-01-01T16:29:07;12.50;99.90
32698;DHT22;19087;51.062;3.754;2023-01-01T16:31:33;12.40;99.90
32698;DHT22;19087;51.062;3.754;2023-01-01T16:34:00;12.40;99.90
32698;DHT22;19087;51.062;3.754;2023-01-01T16:36:28;12.40;99.90
32698;DHT22;19087;51.062;3.754;2023-01-01T16:38:54;12.40;99.90
32698;DHT22;19087;51.062;3.754;2023-01-01T16:41:20;12.40;99.90
32698;DHT22;19087;51.062;3.754;2023-01-01T16:43:47;12.40;99.90
32698;DHT22;19087;51.062;3.754;2023-01-01T16:46:15;12.50;99.90
32698;DHT22;19087;51.062;3.754;2023-01-01T16:48:42;12.30;99.90
32698;DHT22;19087;51.062;3.754;2023-01-01T16:51:23;12.30;99.90
32698;DHT22;19087;51.062;3.754;2023-01-01T16:53:49;12.40;99.90
32698;DHT22;19087;51.062;3.754;2023-01-01T16:56:15;12.40;99.90
32698;DHT22;19087;51.062;3.754;2023-01-01T16:58:41;12.40;99.90
32698;DHT22;19087;51.062;3.754;2023-01-01T17:01:07;12.40;99.90
32698;DHT22;19087;51.062;3.754;2023-01-01T17:03:33;12.40;99.90
32698;DHT22;19087;51.062;3.754;2023-01-01T17:06:02;12.40;99.90
32698;DHT22;19087;51.062;3.754;2023-01-01T17:08:28;12.40;99.90
32698;DHT22;19087;51.062;3.754;2023-01-01T17:11:05;12.40;99.90
32698;DHT22;19087;51.062;3.754;2023-01-01T17:13:35;12.30;99.90
32698;DHT22;19087;51.062;3.754;2023-01-01T17:16:01;12.30;99.90
32698;DHT22;19087;51.062;3.754;2023-01-01T17:18:27;12.30;99.90
32698;DHT22;19087;51.062;3.754;2023-01-01T17:20:53;12.30;99.90
32698;DHT22;19087;51.062;3.754;2023-01-01T17:23:19;12.30;99.90
32698;DHT22;19087;51.062;3.754;2023-01-01T17:25:44;12.40;99.90
32698;DHT22;19087;51.062;3.754;2023-01-01T17:28:10;12.20;99.90
32698;DHT22;19087;51.062;3.754;2023-01-01T17:30:36;12.20;99.90
32698;DHT22;19087;51.062;3.754;2023-01-01T17:33:02;12.20;99.90
32698;DHT22;19087;51.062;3.754;2023-01-01T17:35:28;12.20;99.90
32698;DHT22;19087;51.062;3.754;2023-01-01T17:37:54;12.10;99.90
32698;DHT22;19087;51.062;3.754;2023-01-01T17:40:20;12.10;99.90
32698;DHT22;19087;51.062;3.754;2023-01-01T17:42:52;12.10;99.90
32698;DHT22;19087;51.062;3.754;2023-01-01T17:45:19;12.10;99.90
32698;DHT22;19087;51.062;3.754;2023-01-01T17:47:45;12.10;99.90
32698;DHT22;19087;51.062;3.754;2023-01-01T17:50:16;12.10;99.90
32698;DHT22;19087;51.062;3.754;2023-01-01T17:52:41;12.10;99.90
32698;DHT22;19087;51.062;3.754;2023-01-01T17:55:08;12.10;99.90
32698;DHT22;19087;51.062;3.754;2023-01-01T17:57:36;12.10;99.90
32698;DHT22;19087;51.062;3.754;2023-01-01T18:00:22;12.10;99.90
32698;DHT22;19087;51.062;3.754;2023-01-01T18:02:55;12.00;99.90
32698;DHT22;19087;51.062;3.754;2023-01-01T18:05:21;12.10;99.90
32698;DHT22;19087;51.062;3.754;2023-01-01T18:07:47;12.10;99.90
32698;DHT22;19087;51.062;3.754;2023-01-01T18:10:12;12.10;99.90
32698;DHT22;19087;51.062;3.754;2023-01-01T18:12:38;12.00;99.90
32698;DHT22;19087;51.062;3.754;2023-01-01T18:15:04;12.00;99.90
32698;DHT22;19087;51.062;3.754;2023-01-01T18:17:30;12.00;99.90
32698;DHT22;19087;51.062;3.754;2023-01-01T18:19:57;12.00;99.90
32698;DHT22;19087;51.062;3.754;2023-01-01T18:22:25;11.90;99.90
32698;DHT22;19087;51.062;3.754;2023-01-01T18:24:54;11.90;99.90
32698;DHT22;19087;51.062;3.754;2023-01-01T18:27:23;11.90;99.90
32698;DHT22;19087;51.062;3.754;2023-01-01T18:29:50;12.00;99.90
32698;DHT22;19087;51.062;3.754;2023-01-01T18:32:26;11.90;99.90
32698;DHT22;19087;51.062;3.754;2023-01-01T18:34:52;11.90;99.90
32698;DHT22;19087;51.062;3.754;2023-01-01T18:37:18;11.90;99.90
32698;DHT22;19087;51.062;3.754;2023-01-01T18:39:46;11.80;99.90
32698;DHT22;19087;51.062;3.754;2023-01-01T18:44:44;11.70;99.90
32698;DHT22;19087;51.062;3.754;2023-01-01T18:47:17;11.80;99.90
32698;DHT22;19087;51.062;3.754;2023-01-01T18:49:49;11.80;99.90
32698;DHT22;19087;51.062;3.754;2023-01-01T18:52:35;11.80;99.90
32698;DHT22;19087;51.062;3.754;2023-01-01T18:57:42;11.70;99.90
32698;DHT22;19087;51.062;3.754;2023-01-01T19:05:36;11.90;99.90
32698;DHT22;19087;51.062;3.754;2023-01-01T19:08:24;11.90;99.90
32698;DHT22;19087;51.062;3.754;2023-01-01T19:10:56;11.90;99.90
32698;DHT22;19087;51.062;3.754;2023-01-01T19:13:35;11.90;99.90
32698;DHT22;19087;51.062;3.754;2023-01-01T19:16:24;11.80;99.90
32698;DHT22;19087;51.062;3.754;2023-01-01T19:18:53;11.90;99.90
32698;DHT22;19087;51.062;3.754;2023-01-01T19:21:23;12.00;99.90
32698;DHT22;19087;51.062;3.754;2023-01-01T19:23:59;12.10;99.90
32698;DHT22;19087;51.062;3.754;2023-01-01T19:26:37;12.00;99.90
32698;DHT22;19087;51.062;3.754;2023-01-01T19:29:19;11.90;99.90
32698;DHT22;19087;51.062;3.754;2023-01-01T19:32:14;11.90;99.90
32698;DHT22;19087;51.062;3.754;2023-01-01T19:34:58;11.90;99.90
32698;DHT22;19087;51.062;3.754;2023-01-01T19:37:25;11.90;99.90
32698;DHT22;19087;51.062;3.754;2023-01-01T19:39:50;11.90;99.90
32698;DHT22;19087;51.062;3.754;2023-01-01T19:42:16;11.90;99.90
32698;DHT22;19087;51.062;3.754;2023-01-01T19:44:42;12.00;99.90
32698;DHT22;19087;51.062;3.754;2023-01-01T19:47:09;12.00;99.90
32698;DHT22;19087;51.062;3.754;2023-01-01T19:49:48;12.00;99.90
32698;DHT22;19087;51.062;3.754;2023-01-01T19:52:15;11.90;99.90
32698;DHT22;19087;51.062;3.754;2023-01-01T19:54:41;12.00;99.90
32698;DHT22;19087;51.062;3.754;2023-01-01T19:57:07;11.90;99.90
32698;DHT22;19087;51.062;3.754;2023-01-01T19:59:36;12.00;99.90
32698;DHT22;19087;51.062;3.754;2023-01-01T20:02:05;12.00;99.90
32698;DHT22;19087;51.062;3.754;2023-01-01T20:04:31;12.00;99.90
32698;DHT22;19087;51.062;3.754;2023-01-01T20:06:58;12.00;99.90
32698;DHT22;19087;51.062;3.754;2023-01-01T20:09:24;12.00;99.90
32698;DHT22;19087;51.062;3.754;2023-01-01T20:11:50;12.10;99.90
32698;DHT22;19087;51.062;3.754;2023-01-01T20:14:16;12.00;99.90
32698;DHT22;19087;51.062;3.754;2023-01-01T20:16:42;12.00;99.90
32698;DHT22;19087;51.062;3.754;2023-01-01T20:19:09;12.10;99.90
32698;DHT22;19087;51.062;3.754;2023-01-01T20:21:34;12.00;99.90
32698;DHT22;19087;51.062;3.754;2023-01-01T20:24:19;12.00;99.90
32698;DHT22;19087;51.062;3.754;2023-01-01T20:26:44;11.90;99.90
32698;DHT22;19087;51.062;3.754;2023-01-01T20:29:12;11.90;99.90
32698;DHT22;19087;51.062;3.754;2023-01-01T20:31:44;11.90;99.90
32698;DHT22;19087;51.062;3.754;2023-01-01T20:34:10;12.00;99.90
32698;DHT22;19087;51.062;3.754;2023-01-01T20:36:39;12.00;99.90
32698;DHT22;19087;51.062;3.754;2023-01-01T20:39:25;11.90;99.90
32698;DHT22;19087;51.062;3.754;2023-01-01T20:41:52;11.90;99.90
32698;DHT22;19087;51.062;3.754;2023-01-01T20:44:18;11.90;99.90
32698;DHT22;19087;51.062;3.754;2023-01-01T20:46:45;12.00;99.90
32698;DHT22;19087;51.062;3.754;2023-01-01T20:49:18;12.00;99.90
32698;DHT22;19087;51.062;3.754;2023-01-01T20:51:51;12.10;99.90
32698;DHT22;19087;51.062;3.754;2023-01-01T20:54:19;12.10;99.90
32698;DHT22;19087;51.062;3.754;2023-01-01T20:56:46;12.20;99.90
32698;DHT22;19087;51.062;3.754;2023-01-01T20:59:12;12.20;99.90
32698;DHT22;19087;51.062;3.754;2023-01-01T21:01:40;12.20;99.90
32698;DHT22;19087;51.062;3.754;2023-01-01T21:04:05;12.30;99.90
32698;DHT22;19087;51.062;3.754;2023-01-01T21:06:31;12.40;99.90
